Nissho Maru — JD2650 — position and weather

sailwx.info

Track history (hours):
 
Tides and Currents Weather Stations Pressure Air Temp Water Temp Dewpoint Dewpoint Depression Visibility Wind Speed Wind Dir Waves Ship Positions

Nissho Maru

Last reported at 2016-Dec-07 10:05 UTC. Time now 2016-Dec-10 10:57 UTC.
Position N 35°01' E 139°44'.

Length 75 m.

Type: Cargo ship. MMSI: 431000572.

Date/timePositionNaut miles runAvg speedWind from/ knotsBaromVisibWave heightAir tempDewpointWater temp
2016-Dec-07 10:05N 35°01' E 139°44'711.6
2016-Dec-07 09:32N 35°08' E 139°46'1111.7
2016-Dec-07 08:33N 35°19' E 139°43'1111.1
2016-Dec-07 07:33N 35°29' E 139°48'3 3.3
2016-Dec-07 06:33N 35°30' E 139°44'0 0.0
2016-Dec-07 05:29N 35°30' E 139°44'0 0.0
2016-Dec-07 04:32N 35°30' E 139°44'0 0.0
2016-Dec-07 03:32N 35°30' E 139°44'0 0.0
2016-Dec-07 02:32N 35°30' E 139°44'0 0.0
2016-Dec-07 01:32N 35°30' E 139°44'0 0.0
2016-Dec-07 00:29N 35°30' E 139°44'0 0.0
2016-Dec-06 23:32N 35°30' E 139°44'3 3.2
2016-Dec-06 22:33N 35°30' E 139°48'2 1.6
2016-Dec-06 21:31N 35°28' E 139°48'0 0.0
2016-Dec-06 20:31N 35°28' E 139°48'0 0.0
2016-Dec-06 18:31N 35°28' E 139°48'4 3.8
2016-Dec-06 17:33N 35°25' E 139°47'  
2016-Dec-03 06:09N 35°01' E 139°43'812.9
2016-Dec-03 05:32N 35°09' E 139°45'1211.8
2016-Dec-03 04:33N 35°20' E 139°42'1111.3
2016-Dec-03 03:33N 35°29' E 139°50'9 9.3
2016-Dec-03 02:33N 35°38' E 139°49'0 0.3
2016-Dec-03 01:32N 35°38' E 139°49'0 0.0
2016-Dec-03 00:33N 35°38' E 139°49'0 0.0
2016-Dec-02 23:33N 35°38' E 139°49'0 0.0
2016-Dec-02 22:33N 35°38' E 139°49'2 1.7
2016-Dec-02 21:33N 35°37' E 139°49'3 2.9
2016-Dec-02 20:32N 35°35' E 139°52'0 0.0
2016-Dec-02 19:32N 35°35' E 139°52'0 0.0
2016-Dec-02 18:32N 35°35' E 139°52'0 0.0
2016-Dec-02 17:32N 35°35' E 139°52'0 0.0
2016-Dec-02 16:32N 35°35' E 139°52'0 0.0
2016-Dec-02 15:32N 35°35' E 139°52'0 0.0
2016-Dec-02 14:32N 35°35' E 139°52'0 0.0
2016-Dec-02 13:32N 35°35' E 139°52'0 0.0
2016-Dec-02 12:32N 35°35' E 139°52'0 0.0
2016-Dec-02 11:32N 35°35' E 139°52'0 0.0
2016-Dec-02 10:32N 35°35' E 139°52'7 6.6
2016-Dec-02 09:33N 35°28' E 139°51'1111.1
2016-Dec-02 08:33N 35°18' E 139°45'  
2016-Nov-28 11:16N 34°35' E 134°53'1013.6
2016-Nov-28 10:33N 34°36' E 135°05'1211.8
2016-Nov-28 09:33N 34°40' E 135°18'2 1.5
2016-Nov-28 08:22N 34°42' E 135°18'0 0.4
2016-Nov-28 07:31N 34°42' E 135°18'0 0.0
2016-Nov-28 06:31N 34°42' E 135°18'0 0.0
2016-Nov-28 05:31N 34°42' E 135°18'0 0.0
2016-Nov-28 04:31N 34°42' E 135°18'0 0.0
2016-Nov-28 03:31N 34°42' E 135°18'0 0.0
2016-Nov-28 02:31N 34°42' E 135°18'0 0.0
2016-Nov-28 01:31N 34°42' E 135°18'0 0.0
2016-Nov-28 00:31N 34°42' E 135°18'0 0.0
2016-Nov-27 23:33N 34°42' E 135°18'3 2.7
2016-Nov-27 22:33N 34°40' E 135°19'0 0.2
2016-Nov-27 20:32N 34°40' E 135°19'0 0.0
2016-Nov-27 19:26N 34°40' E 135°19'0 0.0
2016-Nov-27 18:32N 34°40' E 135°19'0 0.0
2016-Nov-27 17:20N 34°40' E 135°19'0 0.1
2016-Nov-27 16:32N 34°40' E 135°19'0 0.0
2016-Nov-27 15:32N 34°40' E 135°19'0 0.0
2016-Nov-27 14:14N 34°40' E 135°19'0 0.0
2016-Nov-27 13:26N 34°40' E 135°19'0 0.0
2016-Nov-27 12:26N 34°40' E 135°19'0 0.0
2016-Nov-27 11:32N 34°40' E 135°19'0 0.1
2016-Nov-27 10:32N 34°40' E 135°19'  
Track history (hours):
 
Tides and Currents Weather Stations Pressure Air Temp Water Temp Dewpoint Dewpoint Depression Visibility Wind Speed Wind Dir Waves Ship Positions

Nissho Maru

Last reported at 2016-Dec-07 10:05 UTC. Time now 2016-Dec-10 10:57 UTC.
Position N 35°01' E 139°44'.

Length 75 m.

Type: Cargo ship. MMSI: 431000572.

Date/timePositionNaut miles runAvg speedWind from/ knotsBaromVisibWave heightAir tempDewpointWater temp
2016-Dec-07 10:05N 35°01' E 139°44'711.6
2016-Dec-07 09:32N 35°08' E 139°46'1111.7
2016-Dec-07 08:33N 35°19' E 139°43'1111.1
2016-Dec-07 07:33N 35°29' E 139°48'3 3.3
2016-Dec-07 06:33N 35°30' E 139°44'0 0.0
2016-Dec-07 05:29N 35°30' E 139°44'0 0.0
2016-Dec-07 04:32N 35°30' E 139°44'0 0.0
2016-Dec-07 03:32N 35°30' E 139°44'0 0.0
2016-Dec-07 02:32N 35°30' E 139°44'0 0.0
2016-Dec-07 01:32N 35°30' E 139°44'0 0.0
2016-Dec-07 00:29N 35°30' E 139°44'0 0.0
2016-Dec-06 23:32N 35°30' E 139°44'3 3.2
2016-Dec-06 22:33N 35°30' E 139°48'2 1.6
2016-Dec-06 21:31N 35°28' E 139°48'0 0.0
2016-Dec-06 20:31N 35°28' E 139°48'0 0.0
2016-Dec-06 18:31N 35°28' E 139°48'4 3.8
2016-Dec-06 17:33N 35°25' E 139°47'  
2016-Dec-03 06:09N 35°01' E 139°43'812.9
2016-Dec-03 05:32N 35°09' E 139°45'1211.8
2016-Dec-03 04:33N 35°20' E 139°42'1111.3
2016-Dec-03 03:33N 35°29' E 139°50'9 9.3
2016-Dec-03 02:33N 35°38' E 139°49'0 0.3
2016-Dec-03 01:32N 35°38' E 139°49'0 0.0
2016-Dec-03 00:33N 35°38' E 139°49'0 0.0
2016-Dec-02 23:33N 35°38' E 139°49'0 0.0
2016-Dec-02 22:33N 35°38' E 139°49'2 1.7
2016-Dec-02 21:33N 35°37' E 139°49'3 2.9
2016-Dec-02 20:32N 35°35' E 139°52'0 0.0
2016-Dec-02 19:32N 35°35' E 139°52'0 0.0
2016-Dec-02 18:32N 35°35' E 139°52'0 0.0
2016-Dec-02 17:32N 35°35' E 139°52'0 0.0
2016-Dec-02 16:32N 35°35' E 139°52'0 0.0
2016-Dec-02 15:32N 35°35' E 139°52'0 0.0
2016-Dec-02 14:32N 35°35' E 139°52'0 0.0
2016-Dec-02 13:32N 35°35' E 139°52'0 0.0
2016-Dec-02 12:32N 35°35' E 139°52'0 0.0
2016-Dec-02 11:32N 35°35' E 139°52'0 0.0
2016-Dec-02 10:32N 35°35' E 139°52'7 6.6
2016-Dec-02 09:33N 35°28' E 139°51'1111.1
2016-Dec-02 08:33N 35°18' E 139°45'  
2016-Nov-28 11:16N 34°35' E 134°53'1013.6
2016-Nov-28 10:33N 34°36' E 135°05'1211.8
2016-Nov-28 09:33N 34°40' E 135°18'2 1.5
2016-Nov-28 08:22N 34°42' E 135°18'0 0.4
2016-Nov-28 07:31N 34°42' E 135°18'0 0.0
2016-Nov-28 06:31N 34°42' E 135°18'0 0.0
2016-Nov-28 05:31N 34°42' E 135°18'0 0.0
2016-Nov-28 04:31N 34°42' E 135°18'0 0.0
2016-Nov-28 03:31N 34°42' E 135°18'0 0.0
2016-Nov-28 02:31N 34°42' E 135°18'0 0.0
2016-Nov-28 01:31N 34°42' E 135°18'0 0.0
2016-Nov-28 00:31N 34°42' E 135°18'0 0.0
2016-Nov-27 23:33N 34°42' E 135°18'3 2.7
2016-Nov-27 22:33N 34°40' E 135°19'0 0.2
2016-Nov-27 20:32N 34°40' E 135°19'0 0.0
2016-Nov-27 19:26N 34°40' E 135°19'0 0.0
2016-Nov-27 18:32N 34°40' E 135°19'0 0.0
2016-Nov-27 17:20N 34°40' E 135°19'0 0.1
2016-Nov-27 16:32N 34°40' E 135°19'0 0.0
2016-Nov-27 15:32N 34°40' E 135°19'0 0.0
2016-Nov-27 14:14N 34°40' E 135°19'0 0.0
2016-Nov-27 13:26N 34°40' E 135°19'0 0.0
2016-Nov-27 12:26N 34°40' E 135°19'0 0.0
2016-Nov-27 11:32N 34°40' E 135°19'0 0.1
2016-Nov-27 10:32N 34°40' E 135°19'  

Dump ship's entire track history